Union City, PA (16438)

1:29 PM EDT on May 30, 2015 (GMT -0400)
2 miles southeast of Mill Village | | Change Station
CLOSE
Current Station
Personal Weather Station
Location: Union City, PA
Elevation: 1572 ft
Nearby Weather Stations

Elev 1572 ft 41.86 °N, 79.94 °W | Updated 13 minutes ago

Overcast
Overcast
76.3 °F
Feels Like 78 °F
N
7.0
Wind Variable Wind from SW
Gusts 17.0 mph

Today
High -- | Low -- °F
--% Chance of Precip.
Yesterday
High -- | Low -- °F
Precip. -- in
5:47 AM 8:46 PM
Waxing Gibbous, 91% visible
Pressure 30.01 in
Visibility 10.0 miles
Clouds Mostly Cloudy 3700 ft
Mostly Cloudy 4500 ft
Overcast 5500 ft
Heat Index 78 °F
Dew Point 67 °F
Humidity 72%
Rainfall 0.00 in
Snow Depth Not available.
UV 3 out of 12
Pollen 2.40 out of 12
Air Quality Not available.
Flu Activity Sporadic
METAR KERI 301651Z 26009KT 10SM BKN037 BKN045 OVC055 25/18 A3003 RMK AO2 RAB19E28 SLP162 P0000 T02500178 $

More Conditions Fewer Conditions

Pressure 30.01 in
Visibility 10.0 miles
Clouds Mostly Cloudy 3700 ft
Mostly Cloudy 4500 ft
Overcast 5500 ft
Heat Index 78 °F
Dew Point 67 °F
Humidity 72%
Rainfall 0.00 in
Snow Depth Not available.
UV 3 out of 12
Pollen 2.40 out of 12
Air Quality Not available.
Flu Activity Sporadic
METAR KERI 301651Z 26009KT 10SM BKN037 BKN045 OVC055 25/18 A3003 RMK AO2 RAB19E28 SLP162 P0000 T02500178 $

More Conditions Fewer Conditions

Nowcast | as of 1:13 PM EDT on May 30, 2015

Showers and thunderstorms this afternoon will have locally heavy rain...gusty winds to 30 mph and hail. Torrential rain will cause ponding of water in low lying areas and poor drainage areas. Motorists should be alert for poor visibility and water on roadways.

×

10-Day Weather Forecast

Almanac

Astronomy

May. 30, 2015 Rise Set
Actual Time
Civil Twilight
Nautical Twilight
Astronomical Twilight
Moon
Length of Visible Light
Length of Day
Tomorrow will be .
, % of the Moon is Illuminated

Today's Extremes

State Highs State Lows

Community

WunderPhotos

Upload Photos

1,825,578 photos uploaded!

WunderBlogs® & News

Nearby

Air Quality

  Air Quality AQ Index Pollutant
Not available.

Snow Depth

Station Depth Elevation

Earthquake Activity

City Distance Mag. Time & Date
Minimum magnitude displayed is 2.5.

Coastal Water Temperatures

Place Temperature

Stations

Nearby Weather Stations

Station Location Temp. Windchill Dew Point Humidity Wind Precip. Elev Updated Type